Time;durP1;ratioP1;P1;durP2;ratioP2;P2;SDS_P1;SDS_P2;PMS_P1;PMS_P2;Temp;Humidity;BMP_temperature;BMP_pressure;BME280_temperature;BME280_humidity;BME280_pressure;Samples;Min_cycle;Max_cycle;Signal;HPM_P1;HPM_P2
2021/08/23 00:01:58;;;;;;;5.10;2.77;;;;;;;13.99;80.73;96000.53;5050290;28;20212;-79
2021/08/23 00:04:23;;;;;;;6.30;2.50;;;;;;;14.00;80.59;95998.75;5050717;28;20208;-79
2021/08/23 00:06:48;;;;;;;3.87;2.90;;;;;;;13.99;80.58;95994.50;5066962;28;20202;-79
2021/08/23 00:09:13;;;;;;;6.07;3.03;;;;;;;13.97;80.84;95993.84;5051461;28;20193;-79
2021/08/23 00:11:39;;;;;;;5.33;3.07;;;;;;;13.99;80.19;95997.13;5066508;28;20273;-78
2021/08/23 00:14:04;;;;;;;4.43;2.73;;;;;;;14.00;80.34;95993.53;5054689;28;20223;-79
2021/08/23 00:16:29;;;;;;;6.10;2.90;;;;;;;13.96;80.29;95994.81;5054346;28;20227;-79
2021/08/23 00:18:55;;;;;;;4.80;2.50;;;;;;;13.97;79.93;95999.88;5054151;28;20185;-78
2021/08/23 00:21:22;;;;;;;3.87;2.80;;;;;;;13.97;80.32;95992.06;5054438;28;20677;-79
2021/08/23 00:24:17;;;;;;;4.07;2.93;;;;;;;13.82;80.87;95994.44;5069661;28;20694;-76
2021/08/23 00:26:42;;;;;;;3.43;2.97;;;;;;;13.90;80.60;95988.44;5067135;28;20189;-77
2021/08/23 00:29:07;;;;;;;5.00;2.90;;;;;;;13.88;80.57;95996.44;5053560;28;20174;-77
2021/08/23 00:31:33;;;;;;;4.00;2.60;;;;;;;13.82;80.60;95991.00;5053145;28;20209;-77
2021/08/23 00:33:58;;;;;;;5.70;2.67;;;;;;;13.80;80.72;95985.94;5053181;28;20545;-78
2021/08/23 00:36:24;;;;;;;4.20;2.50;;;;;;;13.79;80.88;95989.53;5054551;28;20228;-77
2021/08/23 00:38:49;;;;;;;4.40;2.47;;;;;;;13.82;80.75;95989.22;5053941;28;20201;-78
2021/08/23 00:41:14;;;;;;;3.20;2.47;;;;;;;13.80;80.99;95992.97;5064250;28;20189;-77
2021/08/23 00:43:39;;;;;;;4.30;2.63;;;;;;;13.78;80.74;95989.66;5054517;28;20205;-78
2021/08/23 00:46:05;;;;;;;5.23;2.40;;;;;;;13.81;80.76;95994.59;5054964;28;20208;-78
2021/08/23 00:48:32;;;;;;;3.97;2.90;;;;;;;13.83;80.63;95992.63;5036724;28;20205;-77
2021/08/23 00:50:57;;;;;;;3.03;2.53;;;;;;;13.82;80.69;95989.22;5036447;28;20182;-77
2021/08/23 00:53:23;;;;;;;6.10;2.75;;;;;;;13.84;80.85;95989.06;5035424;28;20549;-78
2021/08/23 00:55:48;;;;;;;4.67;2.57;;;;;;;13.86;80.27;95985.31;5044368;28;20187;-77
2021/08/23 00:58:16;;;;;;;4.80;2.80;;;;;;;13.87;80.71;95986.97;5034339;28;20869;-77
2021/08/23 01:00:43;;;;;;;4.20;2.60;;;;;;;13.79;80.81;95993.94;5033050;28;20207;-77
2021/08/23 01:03:18;;;;;;;4.27;2.40;;;;;;;13.87;80.84;95992.19;5032306;28;20174;-77
2021/08/23 01:05:43;;;;;;;2.93;2.60;;;;;;;13.77;81.00;95999.28;5033720;28;20670;-78
2021/08/23 01:08:14;;;;;;;5.10;2.67;;;;;;;13.73;81.16;95991.94;5032492;28;20277;-78
2021/08/23 01:10:45;;;;;;;3.83;2.60;;;;;;;13.70;81.30;95993.09;5032524;28;20320;-77
2021/08/23 01:13:11;;;;;;;3.13;2.43;;;;;;;13.69;81.55;95991.41;5032365;28;20264;-77
2021/08/23 01:15:36;;;;;;;6.97;2.57;;;;;;;13.69;81.88;95990.59;5032858;28;20202;-78
2021/08/23 01:18:02;;;;;;;5.60;2.63;;;;;;;13.66;82.08;95996.16;5032934;28;20194;-77
2021/08/23 01:20:27;;;;;;;6.47;2.40;;;;;;;13.64;82.47;95996.31;5032133;28;20596;-77
2021/08/23 01:22:54;;;;;;;4.03;2.90;;;;;;;13.64;82.87;96001.53;5031662;28;20179;-78
2021/08/23 01:25:30;;;;;;;6.47;2.80;;;;;;;13.67;82.77;95993.38;5015107;28;20228;-78
2021/08/23 01:28:01;;;;;;;4.27;2.93;;;;;;;13.62;83.16;95998.25;5033052;28;20198;-78
2021/08/23 01:30:28;;;;;;;3.77;2.80;;;;;;;13.57;83.20;95996.09;5034133;28;20202;-77
2021/08/23 01:32:54;;;;;;;4.63;2.70;;;;;;;13.53;83.71;95994.78;5031255;28;20206;-77
2021/08/23 01:35:21;;;;;;;4.40;2.97;;;;;;;13.64;83.23;95998.91;5043052;28;20190;-78
2021/08/23 01:37:47;;;;;;;5.83;3.00;;;;;;;13.55;83.86;95992.84;5032293;28;20209;-77
2021/08/23 01:40:12;;;;;;;9.20;3.03;;;;;;;13.55;84.10;95994.63;5032293;28;20210;-78
2021/08/23 01:42:38;;;;;;;5.10;2.90;;;;;;;13.52;84.29;95994.94;5048355;28;20183;-78
2021/08/23 01:45:04;;;;;;;4.90;2.47;;;;;;;13.49;84.48;95990.84;5032770;28;20182;-78
2021/08/23 01:47:29;;;;;;;5.47;2.60;;;;;;;13.49;84.70;95990.03;5033734;28;20605;-78
2021/08/23 01:49:55;;;;;;;3.10;2.73;;;;;;;13.50;84.09;95989.03;5031896;28;20210;-77
2021/08/23 01:52:20;;;;;;;4.83;2.90;;;;;;;13.53;84.15;95993.97;5031138;28;20656;-77
2021/08/23 01:54:45;;;;;;;7.17;3.07;;;;;;;13.58;83.76;95996.91;5043867;28;20179;-76
2021/08/23 01:57:16;;;;;;;6.40;3.00;;;;;;;13.55;84.42;95999.84;5035460;28;20216;-78
2021/08/23 01:59:41;;;;;;;6.23;2.80;;;;;;;13.58;84.17;95989.91;5031546;28;20297;-76
2021/08/23 02:02:07;;;;;;;6.53;3.60;;;;;;;13.57;84.39;95997.91;5031264;28;20221;-78
2021/08/23 02:04:32;;;;;;;6.63;3.20;;;;;;;13.56;84.42;95996.25;5015211;28;20182;-77
2021/08/23 02:06:58;;;;;;;5.43;2.50;;;;;;;13.61;84.13;95994.03;5031498;28;20210;-77
2021/08/23 02:09:23;;;;;;;6.17;2.83;;;;;;;13.58;83.95;95994.31;5031894;28;20190;-76
2021/08/23 02:11:49;;;;;;;4.63;2.57;;;;;;;13.53;84.01;95991.38;5031400;28;20212;-76
2021/08/23 02:14:14;;;;;;;2.90;2.60;;;;;;;13.54;83.77;95988.59;5048457;28;20182;-76
2021/08/23 02:16:41;;;;;;;3.37;2.60;;;;;;;13.50;84.07;95982.03;5031675;28;20257;-77
2021/08/23 02:19:07;;;;;;;7.53;2.50;;;;;;;13.53;83.92;95983.53;5031583;28;20289;-78
2021/08/23 02:21:46;;;;;;;4.00;2.60;;;;;;;13.49;83.81;95990.84;5030771;28;20228;-77
2021/08/23 02:24:12;;;;;;;3.77;2.77;;;;;;;13.50;83.79;95983.81;5031593;28;20178;-76
2021/08/23 02:26:38;;;;;;;5.93;2.87;;;;;;;13.57;83.37;95992.69;5032492;28;20712;-75
2021/08/23 02:29:03;;;;;;;4.27;2.60;;;;;;;13.58;83.35;95986.47;5031588;28;20182;-77
2021/08/23 02:31:28;;;;;;;5.57;2.67;;;;;;;13.54;83.45;95983.38;5031290;28;20221;-77
2021/08/23 02:33:53;;;;;;;4.63;2.70;;;;;;;13.52;83.79;95990.53;5030178;28;20709;-77
2021/08/23 02:36:19;;;;;;;5.07;2.70;;;;;;;13.48;83.67;95999.63;5031270;28;20669;-77
2021/08/23 02:38:46;;;;;;;5.27;2.60;;;;;;;13.44;83.88;95995.72;5030988;28;20198;-77
2021/08/23 02:41:11;;;;;;;3.53;2.57;;;;;;;13.45;83.69;95996.53;5031062;28;20198;-77
2021/08/23 02:43:37;;;;;;;5.50;2.90;;;;;;;13.45;84.00;95988.72;5030680;28;20191;-77
2021/08/23 02:46:02;;;;;;;7.33;2.40;;;;;;;13.46;84.18;95995.56;5031717;28;20190;-77
2021/08/23 02:48:27;;;;;;;4.80;2.50;;;;;;;13.44;83.99;95992.28;5032390;28;20222;-76
2021/08/23 02:50:52;;;;;;;3.77;2.40;;;;;;;13.37;84.27;95988.66;5030624;28;20179;-77
2021/08/23 02:53:18;;;;;;;2.73;2.40;;;;;;;13.48;83.54;95993.59;5029879;28;20260;-77
2021/08/23 02:55:43;;;;;;;3.73;2.50;;;;;;;13.45;84.00;95993.91;5030988;28;20182;-77
2021/08/23 02:58:09;;;;;;;5.87;2.50;;;;;;;13.48;83.37;95991.81;5032523;28;20292;-77
2021/08/23 03:00:35;;;;;;;3.70;2.50;;;;;;;13.53;82.98;95991.38;5031061;28;20202;-77
2021/08/23 03:03:00;;;;;;;2.60;2.37;;;;;;;13.55;82.83;95992.84;5030571;28;20603;-78
2021/08/23 03:05:25;;;;;;;3.17;2.50;;;;;;;13.53;83.23;95991.38;5047051;28;20213;-78
2021/08/23 03:07:50;;;;;;;4.70;2.60;;;;;;;13.50;83.10;95995.06;5030275;28;20190;-77
2021/08/23 03:10:16;;;;;;;2.63;2.00;;;;;;;13.53;83.15;95983.53;5047741;28;20186;-77
2021/08/23 03:12:41;;;;;;;4.77;2.53;;;;;;;13.60;82.66;95985.38;5030180;28;20237;-77
2021/08/23 03:15:07;;;;;;;4.33;2.67;;;;;;;13.52;82.85;95982.72;5031277;28;20703;-78
2021/08/23 03:17:34;;;;;;;3.67;2.60;;;;;;;13.54;83.11;95985.16;5030451;28;20206;-77
2021/08/23 03:20:00;;;;;;;5.27;3.20;;;;;;;13.55;83.02;95986.81;5031399;28;20324;-76
2021/08/23 03:22:25;;;;;;;4.53;2.90;;;;;;;13.53;82.96;95984.34;5030134;28;20214;-77
2021/08/23 03:24:50;;;;;;;4.27;2.50;;;;;;;13.51;83.10;95983.66;5030764;28;20273;-76
2021/08/23 03:27:16;;;;;;;4.87;2.63;;;;;;;13.54;82.83;95987.78;5032930;28;20205;-78
2021/08/23 03:29:41;;;;;;;4.67;2.83;;;;;;;13.54;82.91;95982.56;5030743;28;20175;-79
2021/08/23 03:32:07;;;;;;;5.40;2.57;;;;;;;13.52;82.96;95993.16;5031379;28;20261;-78
2021/08/23 03:34:32;;;;;;;5.40;2.77;;;;;;;13.51;83.10;95993.28;5028907;28;20229;-79
2021/08/23 03:36:58;;;;;;;6.33;2.87;;;;;;;13.49;83.46;95998.66;5031271;28;20206;-79
2021/08/23 03:39:23;;;;;;;2.93;2.40;;;;;;;13.47;83.67;95999.81;5046931;28;20252;-76
2021/08/23 03:41:48;;;;;;;5.13;2.77;;;;;;;13.44;83.57;95992.28;5029425;28;20194;-77
2021/08/23 03:44:14;;;;;;;2.63;2.30;;;;;;;13.45;83.90;95993.91;5047121;28;20240;-76
2021/08/23 03:46:39;;;;;;;4.33;2.80;;;;;;;13.50;83.56;95997.69;5031331;28;20182;-77
2021/08/23 03:49:05;;;;;;;7.53;3.17;;;;;;;13.46;83.84;96000.78;5032754;28;20715;-77
2021/08/23 03:51:31;;;;;;;3.80;2.77;;;;;;;13.43;84.25;95995.84;5033491;28;20588;-76
2021/08/23 03:53:56;;;;;;;6.40;3.00;;;;;;;13.42;84.36;95994.22;5034478;28;20186;-77
2021/08/23 03:56:21;;;;;;;5.70;2.90;;;;;;;13.43;84.23;95995.84;5034071;28;20695;-77
2021/08/23 03:58:47;;;;;;;6.00;3.37;;;;;;;13.43;84.52;95995.84;5033640;28;20246;-78
2021/08/23 04:01:12;;;;;;;4.97;3.10;;;;;;;13.45;84.53;95997.34;5033692;28;20214;-78
2021/08/23 04:03:37;;;;;;;6.37;2.83;;;;;;;13.46;84.49;95998.16;5034822;28;20248;-77
2021/08/23 04:06:03;;;;;;;4.73;3.27;;;;;;;13.49;84.51;96005.69;5035853;28;20236;-76
2021/08/23 04:08:28;;;;;;;6.53;3.07;;;;;;;13.45;84.67;96004.34;5035040;28;20284;-77
2021/08/23 04:10:53;;;;;;;5.93;2.80;;;;;;;13.45;84.79;96002.56;5033475;28;20529;-77
2021/08/23 04:13:19;;;;;;;7.27;2.97;;;;;;;13.46;84.83;96006.00;5049584;28;20182;-77
2021/08/23 04:15:47;;;;;;;6.40;3.10;;;;;;;13.45;84.73;96004.34;5033903;28;20181;-77
2021/08/23 04:18:13;;;;;;;5.37;3.30;;;;;;;13.51;84.79;96006.34;5033917;28;20257;-76
2021/08/23 04:20:39;;;;;;;7.10;3.30;;;;;;;13.54;84.36;96008.66;5033614;28;20241;-77
2021/08/23 04:23:04;;;;;;;6.43;3.43;;;;;;;13.50;84.69;96012.53;5032693;28;20224;-77
2021/08/23 04:25:29;;;;;;;3.57;3.10;;;;;;;13.55;84.47;96005.88;5033307;28;20182;-76
2021/08/23 04:27:54;;;;;;;5.03;3.03;;;;;;;13.47;84.81;96008.44;5033819;28;20295;-77
2021/08/23 04:30:20;;;;;;;7.07;3.10;;;;;;;13.55;84.43;96011.09;5034260;28;20276;-77
2021/08/23 04:32:45;;;;;;;5.13;3.37;;;;;;;13.56;84.52;96011.91;5032264;28;20210;-78
2021/08/23 04:35:10;;;;;;;4.57;3.17;;;;;;;13.55;84.68;96012.91;5033361;28;20190;-77
2021/08/23 04:37:36;;;;;;;7.17;3.27;;;;;;;13.56;84.49;96015.34;5034687;28;20202;-77
2021/08/23 04:40:01;;;;;;;5.87;3.20;;;;;;;13.56;84.44;96007.50;5034767;28;20701;-78
2021/08/23 04:42:27;;;;;;;6.00;3.40;;;;;;;13.61;84.35;96017.50;5032785;28;20187;-77
2021/08/23 04:44:52;;;;;;;5.07;3.30;;;;;;;13.53;84.36;96020.06;5033951;28;20261;-77
2021/08/23 04:47:17;;;;;;;9.27;4.27;;;;;;;13.54;84.55;96011.25;5032790;28;20427;-78
2021/08/23 04:49:43;;;;;;;6.00;3.60;;;;;;;13.59;84.25;96019.44;5034086;28;20182;-78
2021/08/23 04:52:08;;;;;;;5.97;3.67;;;;;;;13.59;84.31;96016.81;5032471;28;20198;-76
2021/08/23 04:54:34;;;;;;;6.20;3.37;;;;;;;13.61;84.22;96012.28;5032824;28;20213;-78
2021/08/23 04:56:59;;;;;;;5.90;3.10;;;;;;;13.65;84.24;96024.03;5032519;28;20218;-77
2021/08/23 04:59:24;;;;;;;7.70;3.83;;;;;;;13.69;84.12;96016.69;5031499;28;20205;-77
2021/08/23 05:01:50;;;;;;;7.97;3.03;;;;;;;13.72;83.94;96024.25;5031957;28;20582;-77
2021/08/23 05:04:15;;;;;;;7.13;3.10;;;;;;;13.73;84.12;96028.50;5032570;28;20208;-77
2021/08/23 05:06:40;;;;;;;4.70;3.17;;;;;;;13.73;84.13;96024.09;5031128;28;20202;-77
2021/08/23 05:09:06;;;;;;;3.83;2.97;;;;;;;13.76;83.89;96022.94;5032553;28;20181;-78
2021/08/23 05:11:31;;;;;;;5.80;3.80;;;;;;;13.79;83.60;96031.31;5033223;28;20182;-78
2021/08/23 05:13:56;;;;;;;8.47;3.37;;;;;;;13.81;83.77;96028.53;5049561;28;20654;-78
2021/08/23 05:16:21;;;;;;;4.90;3.10;;;;;;;13.82;83.79;96030.16;5032745;28;20187;-78
2021/08/23 05:18:47;;;;;;;5.93;3.23;;;;;;;13.81;83.57;96026.75;5032417;28;20278;-78
2021/08/23 05:21:12;;;;;;;6.80;3.60;;;;;;;13.82;83.60;96028.38;5049269;28;20206;-78
2021/08/23 05:23:37;;;;;;;5.67;3.33;;;;;;;13.82;83.57;96030.97;5035708;28;20191;-78
2021/08/23 05:26:07;;;;;;;7.43;3.70;;;;;;;13.78;84.02;96023.59;5035323;28;20183;-78
2021/08/23 05:28:32;;;;;;;8.23;3.50;;;;;;;13.74;84.20;96024.91;5034014;28;20202;-78
2021/08/23 05:30:58;;;;;;;6.47;3.37;;;;;;;13.73;83.76;96023.25;5034519;28;20272;-78
2021/08/23 05:33:23;;;;;;;5.30;3.77;;;;;;;13.72;84.08;96030.28;5035026;28;20179;-78
2021/08/23 05:35:48;;;;;;;5.07;3.57;;;;;;;13.76;84.09;96030.78;5036601;28;20187;-79
2021/08/23 05:38:14;;;;;;;8.83;4.10;;;;;;;13.72;84.19;96021.63;5035752;28;20198;-77
2021/08/23 05:40:40;;;;;;;5.20;3.57;;;;;;;13.76;84.18;96018.53;5033246;28;20205;-77
2021/08/23 05:43:05;;;;;;;10.00;4.07;;;;;;;13.79;84.17;96027.88;5033307;28;20663;-77
2021/08/23 05:45:31;;;;;;;7.60;4.00;;;;;;;13.81;84.43;96026.75;5033284;28;20174;-78
2021/08/23 05:47:56;;;;;;;5.37;3.57;;;;;;;13.89;83.61;96024.16;5033474;28;20584;-77
2021/08/23 05:50:21;;;;;;;5.13;3.87;;;;;;;13.93;83.50;96016.00;5036770;28;20186;-78
2021/08/23 05:52:47;;;;;;;6.30;3.50;;;;;;;13.99;83.36;96020.63;5035004;28;20187;-78
2021/08/23 05:55:12;;;;;;;8.53;4.40;;;;;;;14.02;83.08;96018.50;5037965;28;20170;-79
2021/08/23 05:57:38;;;;;;;5.77;3.67;;;;;;;14.16;83.02;96027.53;5037062;28;20210;-79
2021/08/23 06:00:05;;;;;;;5.73;3.30;;;;;;;14.30;82.26;96026.91;5037707;28;20197;-78
2021/08/23 06:02:30;;;;;;;5.73;3.70;;;;;;;14.39;81.92;96023.34;5053085;28;20269;-78
2021/08/23 06:04:56;;;;;;;6.83;4.10;;;;;;;14.47;81.31;96025.19;5037573;28;20221;-78
2021/08/23 06:07:21;;;;;;;5.40;3.67;;;;;;;14.58;81.08;96026.72;5034965;28;20254;-79
2021/08/23 06:09:46;;;;;;;5.32;4.07;;;;;;;14.61;80.42;96035.03;5034895;28;20170;-78
2021/08/23 06:12:12;;;;;;;7.37;4.53;;;;;;;14.71;80.89;96040.13;5035097;28;20175;-78
2021/08/23 06:14:40;;;;;;;8.40;4.10;;;;;;;14.65;80.81;96035.53;5039668;28;20186;-78
2021/08/23 06:17:05;;;;;;;4.90;3.53;;;;;;;14.65;80.67;96033.72;5037396;28;20194;-78
2021/08/23 06:19:31;;;;;;;5.22;3.75;;;;;;;14.73;81.06;96032.94;5052751;28;20194;-77
2021/08/23 06:21:56;;;;;;;5.85;3.40;;;;;;;14.80;80.83;96039.16;5071865;28;20188;-78
2021/08/23 06:24:22;;;;;;;3.95;3.50;;;;;;;14.83;80.40;96040.63;5042474;28;20178;-77
2021/08/23 06:26:47;;;;;;;10.73;3.90;;;;;;;14.85;80.11;96036.06;5050368;28;20200;-76
2021/08/23 06:29:12;;;;;;;5.95;3.95;;;;;;;14.88;79.76;96036.56;5068465;28;20197;-77
2021/08/23 06:31:39;;;;;;;8.73;3.50;;;;;;;15.02;78.93;96032.47;5054261;28;20159;-76
2021/08/23 06:34:05;;;;;;;4.43;3.55;;;;;;;15.17;78.51;96030.00;5069677;28;20194;-78
2021/08/23 06:36:34;;;;;;;6.10;3.50;;;;;;;15.33;78.43;96024.78;5041763;28;20174;-77
2021/08/23 06:39:00;;;;;;;6.40;3.55;;;;;;;15.38;77.88;96026.91;5051601;28;20224;-77
2021/08/23 06:41:26;;;;;;;5.90;3.40;;;;;;;15.54;77.34;96032.09;5068343;28;20182;-76
2021/08/23 06:43:51;;;;;;;4.75;3.20;;;;;;;15.67;76.64;96026.38;5068313;28;20170;-77
2021/08/23 06:46:17;;;;;;;7.75;3.22;;;;;;;15.70;76.35;96033.91;5069334;28;20269;-79
2021/08/23 06:48:43;;;;;;;6.78;3.28;;;;;;;15.90;74.79;96032.53;5052701;28;20197;-79
2021/08/23 06:51:08;;;;;;;6.97;3.10;;;;;;;16.04;74.58;96034.47;5070132;28;20212;-78
2021/08/23 06:53:33;;;;;;;7.78;3.92;;;;;;;16.03;73.98;96027.59;5069972;28;20169;-77
2021/08/23 06:55:59;;;;;;;4.40;3.20;;;;;;;15.93;73.44;96039.25;5068350;28;20178;-76
2021/08/23 06:58:24;;;;;;;8.18;3.22;;;;;;;16.19;72.75;96036.38;5051776;28;20217;-78
2021/08/23 07:00:49;;;;;;;8.02;3.42;;;;;;;16.50;71.96;96039.81;5034882;28;20209;-75
2021/08/23 07:03:15;;;;;;;5.28;3.25;;;;;;;16.79;71.43;96041.00;5051262;28;20177;-77
2021/08/23 07:05:40;;;;;;;6.90;3.15;;;;;;;16.98;70.97;96043.16;5051964;28;20184;-78
2021/08/23 07:08:06;;;;;;;4.47;3.15;;;;;;;17.12;69.84;96036.31;5051973;28;20200;-77
2021/08/23 07:10:32;;;;;;;6.55;3.25;;;;;;;17.14;69.62;96039.59;5034137;28;20178;-78
2021/08/23 07:12:57;;;;;;;4.90;2.65;;;;;;;16.93;69.52;96040.25;5046909;28;20186;-79
2021/08/23 07:15:23;;;;;;;7.18;2.95;;;;;;;16.86;69.76;96039.31;5048039;28;20179;-78
2021/08/23 07:17:48;;;;;;;6.28;3.30;;;;;;;16.88;69.77;96042.59;5047267;28;20230;-77
2021/08/23 07:20:13;;;;;;;7.85;3.50;;;;;;;17.08;69.58;96038.50;5047812;28;20221;-78
2021/08/23 07:22:39;;;;;;;7.10;3.13;;;;;;;17.22;69.07;96037.72;5046168;28;20582;-78
2021/08/23 07:25:06;;;;;;;7.70;3.47;;;;;;;17.23;68.48;96033.31;5031889;28;20174;-77
2021/08/23 07:27:32;;;;;;;3.58;3.20;;;;;;;17.43;68.08;96038.88;5059871;28;20217;-78
2021/08/23 07:29:58;;;;;;;7.45;3.30;;;;;;;17.58;68.15;96039.72;5034710;28;20522;-79
2021/08/23 07:32:23;;;;;;;5.63;3.10;;;;;;;17.44;68.90;96037.88;5050484;28;20181;-77
2021/08/23 07:34:48;;;;;;;5.38;3.63;;;;;;;17.13;68.60;96043.19;5051612;28;20178;-78
2021/08/23 07:37:14;;;;;;;4.28;2.88;;;;;;;17.14;68.90;96042.22;5050284;28;20197;-78
2021/08/23 07:39:41;;;;;;;3.55;2.90;;;;;;;16.63;69.58;96042.69;5033682;28;20229;-78
2021/08/23 07:42:07;;;;;;;4.07;3.28;;;;;;;16.75;70.26;96044.94;5033493;28;20184;-78
2021/08/23 07:44:32;;;;;;;7.15;3.08;;;;;;;16.80;70.42;96045.25;5049822;28;20174;-78
2021/08/23 07:46:57;;;;;;;5.68;3.42;;;;;;;16.77;70.77;96056.06;5051632;28;20240;-78
2021/08/23 07:49:23;;;;;;;5.60;3.08;;;;;;;16.62;71.68;96054.19;5050440;28;20224;-78
2021/08/23 07:51:48;;;;;;;4.35;2.88;;;;;;;16.45;71.26;96047.41;5033529;28;20186;-79
2021/08/23 07:54:16;;;;;;;5.00;3.13;;;;;;;16.40;71.43;96049.69;5051481;28;20178;-79
2021/08/23 07:56:42;;;;;;;4.63;3.55;;;;;;;16.44;71.37;96061.50;5033949;28;20224;-78
2021/08/23 07:59:07;;;;;;;4.00;2.67;;;;;;;16.37;71.14;96053.50;5033821;28;20603;-78
2021/08/23 08:01:32;;;;;;;3.70;2.80;;;;;;;16.50;71.22;96049.47;5049147;28;20197;-79
2021/08/23 08:03:58;;;;;;;4.78;3.30;;;;;;;16.49;71.72;96053.91;5049785;28;20174;-77
2021/08/23 08:06:23;;;;;;;3.60;2.45;;;;;;;16.56;71.38;96052.25;5049417;28;20279;-76
2021/08/23 08:08:48;;;;;;;3.00;2.53;;;;;;;16.60;71.80;96050.91;5050858;28;20304;-77
2021/08/23 08:11:14;;;;;;;5.05;2.75;;;;;;;16.61;71.88;96052.56;5049481;28;20178;-77
2021/08/23 08:13:39;;;;;;;3.63;2.50;;;;;;;16.81;69.93;96055.56;5049341;28;20192;-77
2021/08/23 08:16:04;;;;;;;4.68;2.75;;;;;;;16.89;70.59;96052.91;5050844;28;20638;-78
2021/08/23 08:18:29;;;;;;;4.68;2.53;;;;;;;17.09;69.31;96050.63;5050961;28;20687;-78
2021/08/23 08:20:55;;;;;;;3.53;2.63;;;;;;;17.36;68.82;96046.63;5050392;28;20198;-78
2021/08/23 08:23:20;;;;;;;6.60;2.90;;;;;;;17.55;67.63;96058.44;5053349;28;20189;-77
2021/08/23 08:25:46;;;;;;;2.70;2.50;;;;;;;17.62;66.99;96053.28;5062371;28;20688;-76
2021/08/23 08:28:12;;;;;;;3.00;2.70;;;;;;;17.79;67.88;96042.47;5051619;28;20194;-78
2021/08/23 08:30:38;;;;;;;4.57;2.65;;;;;;;17.92;66.95;96046.28;5067844;28;20170;-77
2021/08/23 08:33:03;;;;;;;3.15;2.40;;;;;;;18.12;65.87;96057.91;5055195;28;20182;-77
2021/08/23 08:35:28;;;;;;;3.28;2.38;;;;;;;18.33;65.49;96060.59;5058734;28;20205;-76
2021/08/23 08:37:54;;;;;;;2.60;2.40;;;;;;;18.48;65.54;96059.75;5057793;28;20201;-76
2021/08/23 08:40:19;;;;;;;4.35;2.60;;;;;;;18.37;65.96;96063.66;5058553;28;20194;-77
2021/08/23 08:42:45;;;;;;;6.32;2.45;;;;;;;17.96;67.26;96055.44;5059584;28;20174;-77
2021/08/23 08:45:11;;;;;;;4.30;2.63;;;;;;;18.16;66.62;96063.59;5043736;28;20178;-76
2021/08/23 08:47:41;;;;;;;3.63;2.78;;;;;;;17.97;66.72;96062.31;5061290;28;20263;-77
2021/08/23 08:50:09;;;;;;;3.05;2.75;;;;;;;17.77;67.18;96064.69;5077060;28;20169;-77
2021/08/23 08:52:36;;;;;;;7.18;2.88;;;;;;;17.79;67.42;96070.56;5059571;28;20247;-77
2021/08/23 08:55:01;;;;;;;4.78;2.72;;;;;;;17.56;67.47;96073.19;5075963;28;20220;-76
2021/08/23 08:57:26;;;;;;;3.20;2.53;;;;;;;17.72;67.42;96065.19;5059218;28;20214;-77
2021/08/23 08:59:52;;;;;;;3.65;2.83;;;;;;;18.07;67.09;96065.50;5060385;28;20201;-76
2021/08/23 09:02:17;;;;;;;3.03;2.55;;;;;;;18.47;65.60;96076.53;5060364;28;20166;-77
2021/08/23 09:04:42;;;;;;;3.25;2.80;;;;;;;18.52;65.24;96079.41;5060898;28;20189;-76
2021/08/23 09:07:09;;;;;;;4.00;2.83;;;;;;;18.28;66.34;96086.59;5060963;28;20213;-75
2021/08/23 09:09:35;;;;;;;4.47;2.40;;;;;;;18.73;64.05;96082.16;5059474;28;20576;-77
2021/08/23 09:12:03;;;;;;;7.45;2.50;;;;;;;18.51;64.58;96086.50;5075003;28;20178;-76
2021/08/23 09:14:29;;;;;;;3.45;2.60;;;;;;;18.48;64.85;96086.06;5043185;28;20202;-77
2021/08/23 09:17:06;;;;;;;4.15;2.97;;;;;;;18.66;64.52;96082.06;5041667;28;20243;-76
2021/08/23 09:19:34;;;;;;;4.32;2.90;;;;;;;19.04;63.43;96084.50;5056952;28;20221;-76
2021/08/23 09:22:05;;;;;;;2.92;2.63;;;;;;;19.31;62.50;96088.19;5052947;28;20658;-77
2021/08/23 09:24:37;;;;;;;2.90;2.30;;;;;;;19.58;60.81;96080.56;5033273;28;20179;-77
2021/08/23 09:27:10;;;;;;;3.20;2.50;;;;;;;19.57;60.62;96085.00;5033071;28;20190;-77
2021/08/23 09:29:54;;;;;;;2.50;2.15;;;;;;;19.72;59.00;96085.75;5033320;28;20233;-79
2021/08/23 09:32:19;;;;;;;4.43;2.42;;;;;;;20.14;60.06;96093.72;5015221;28;20309;-76
2021/08/23 09:34:46;;;;;;;3.55;2.38;;;;;;;20.19;58.94;96096.59;5037519;28;20209;-76
2021/08/23 09:37:21;;;;;;;3.25;2.60;;;;;;;20.00;58.16;96101.56;5040890;28;20202;-77
2021/08/23 09:39:47;;;;;;;2.50;2.30;;;;;;;19.78;60.50;96097.31;5040208;28;20563;-77
2021/08/23 09:42:14;;;;;;;2.60;2.08;;;;;;;19.53;59.90;96100.38;5048704;28;20189;-76
2021/08/23 09:44:41;;;;;;;3.85;2.50;;;;;;;19.45;60.83;96097.84;5050207;28;20272;-77
2021/08/23 09:47:06;;;;;;;5.38;2.40;;;;;;;19.65;61.45;96099.88;5040585;28;20740;-77
2021/08/23 09:49:37;;;;;;;3.53;2.30;;;;;;;20.03;60.91;96089.81;5042134;28;20170;-78
2021/08/23 09:52:02;;;;;;;3.03;2.25;;;;;;;20.23;58.97;96100.47;5040911;28;20174;-78
2021/08/23 09:54:29;;;;;;;3.45;2.55;;;;;;;19.75;58.72;96095.09;5045285;28;20181;-77
2021/08/23 09:56:55;;;;;;;4.65;2.58;;;;;;;20.27;58.55;96096.44;5041870;28;20210;-76
2021/08/23 09:59:29;;;;;;;3.28;2.75;;;;;;;19.75;59.69;96103.00;5040330;28;20209;-76
2021/08/23 10:01:56;;;;;;;4.82;2.90;;;;;;;19.86;60.23;96099.81;5039437;28;20175;-74
2021/08/23 10:04:22;;;;;;;3.30;2.80;;;;;;;19.93;59.75;96105.97;5040747;28;20201;-74
2021/08/23 10:06:48;;;;;;;4.05;2.47;;;;;;;20.27;59.59;96099.09;5041448;28;20217;-74
2021/08/23 10:09:24;;;;;;;4.53;2.72;;;;;;;20.09;58.79;96105.66;5054887;28;20186;-74
2021/08/23 10:11:52;;;;;;;5.47;2.60;;;;;;;20.32;59.52;96101.97;5038933;28;20189;-73
2021/08/23 10:14:17;;;;;;;3.25;2.60;;;;;;;20.41;59.50;96110.50;5040088;28;20523;-74
2021/08/23 10:16:43;;;;;;;3.20;2.90;;;;;;;20.03;58.77;96110.88;5040230;28;20182;-74
2021/08/23 10:19:09;;;;;;;5.05;2.67;;;;;;;20.00;60.32;96108.66;5050418;28;20188;-74
2021/08/23 10:21:36;;;;;;;3.28;2.63;;;;;;;19.93;59.93;96116.50;5051013;28;20598;-74
2021/08/23 10:24:02;;;;;;;4.28;2.70;;;;;;;19.98;59.60;96108.03;5066860;28;20671;-73
2021/08/23 10:26:27;;;;;;;4.63;2.65;;;;;;;20.11;58.90;96105.47;5066685;28;20181;-74
2021/08/23 10:28:53;;;;;;;5.05;3.00;;;;;;;20.01;59.09;96105.81;5050163;28;20292;-74
2021/08/23 10:31:20;;;;;;;3.63;2.97;;;;;;;19.41;60.47;96104.50;5051055;28;20165;-75
2021/08/23 10:33:47;;;;;;;3.40;2.78;;;;;;;19.50;61.31;96110.44;5045005;28;20580;-78
2021/08/23 10:36:16;;;;;;;3.17;2.63;;;;;;;19.89;59.75;96104.72;5033926;28;20261;-77
2021/08/23 10:38:46;;;;;;;2.90;2.60;;;;;;;19.63;60.10;96110.59;5032124;28;20205;-77
2021/08/23 10:41:11;;;;;;;3.20;2.60;;;;;;;19.88;60.23;96111.00;5031549;28;20195;-76
2021/08/23 10:43:49;;;;;;;4.05;2.70;;;;;;;19.88;59.83;96105.75;5032251;28;20707;-80
2021/08/23 10:46:28;;;;;;;4.40;2.35;;;;;;;19.71;58.82;96109.66;5030521;28;20171;-76
2021/08/23 10:48:55;;;;;;;4.75;2.83;;;;;;;19.69;59.99;96106.38;5031675;28;20278;-77
2021/08/23 10:51:43;;;;;;;4.43;2.75;;;;;;;20.06;58.74;96106.06;5031508;28;20304;-78
2021/08/23 10:54:26;;;;;;;4.15;2.20;;;;;;;19.59;60.64;96098.00;5031798;28;20437;-77
2021/08/23 10:57:00;;;;;;;4.82;2.45;;;;;;;20.17;59.16;96099.44;5038709;28;20359;-77
2021/08/23 10:59:36;;;;;;;3.08;2.00;;;;;;;20.30;57.69;96099.50;5051520;28;20257;-76
2021/08/23 11:02:02;;;;;;;4.15;2.40;;;;;;;20.55;57.08;96099.03;5041351;28;20178;-77
2021/08/23 11:04:32;;;;;;;4.53;2.90;;;;;;;20.43;59.54;96100.59;5041352;28;20257;-77
2021/08/23 11:07:02;;;;;;;4.15;2.30;;;;;;;20.79;57.64;96095.91;5041215;28;20198;-77
2021/08/23 11:09:31;;;;;;;3.45;2.40;;;;;;;20.18;57.57;96093.16;5041021;28;20665;-77
2021/08/23 11:12:09;;;;;;;2.80;2.00;;;;;;;20.22;57.42;96094.38;5040801;28;20549;-76
2021/08/23 11:14:49;;;;;;;3.85;1.98;;;;;;;20.73;57.92;96095.88;5055662;28;20193;-78
2021/08/23 11:17:31;;;;;;;4.40;2.40;;;;;;;20.34;57.42;96094.66;5038392;28;20201;-77
2021/08/23 11:19:58;;;;;;;2.90;2.60;;;;;;;19.70;59.70;96089.56;5041344;28;20198;-77
2021/08/23 11:22:24;;;;;;;5.78;2.70;;;;;;;19.87;59.94;96084.81;5039777;28;20178;-77
2021/08/23 11:24:49;;;;;;;4.28;2.50;;;;;;;19.37;61.58;96090.09;5038292;28;20190;-77
2021/08/23 11:27:15;;;;;;;5.55;2.70;;;;;;;19.54;61.28;96090.63;5056131;28;20251;-76
2021/08/23 11:29:53;;;;;;;2.60;2.33;;;;;;;19.80;58.95;96090.88;5040308;28;20182;-75
2021/08/23 11:32:19;;;;;;;3.92;2.40;;;;;;;19.97;58.50;96091.41;5038091;28;20178;-78